Time;durP1;ratioP1;P1;durP2;ratioP2;P2;SDS_P1;SDS_P2;PMS_P1;PMS_P2;Temp;Humidity;BMP_temperature;BMP_pressure;BME280_temperature;BME280_humidity;BME280_pressure;Samples;Min_cycle;Max_cycle;Signal;HPM_P1;HPM_P2
2022/04/26 03:37:05;;;;;;;16.87;14.50;;;;;;;11.33;100.00;94731.97;5094811;28;20191;-53
2022/04/26 03:39:34;;;;;;;16.80;14.37;;;;;;;11.27;100.00;94733.66;5093535;28;20177;-51
2022/04/26 03:42:00;;;;;;;20.47;15.00;;;;;;;11.31;100.00;94737.84;5093470;28;20181;-53
2022/04/26 03:44:26;;;;;;;18.50;14.77;;;;;;;11.31;100.00;94737.06;5093473;28;20264;-52
2022/04/26 03:46:52;;;;;;;18.60;15.13;;;;;;;11.26;100.00;94743.03;5094112;28;20207;-44
2022/04/26 03:49:19;;;;;;;19.93;15.23;;;;;;;11.24;100.00;94740.72;5093417;28;20185;-64
2022/04/26 03:51:45;;;;;;;17.53;14.50;;;;;;;11.26;100.00;94737.59;5093353;28;20192;-63
2022/04/26 03:54:10;;;;;;;18.97;15.03;;;;;;;11.23;100.00;94743.88;5093354;28;20188;-64
2022/04/26 03:56:35;;;;;;;17.67;14.63;;;;;;;11.19;100.00;94741.25;5093195;28;20184;-64
2022/04/26 03:59:01;;;;;;;17.10;13.80;;;;;;;11.23;100.00;94743.88;5093888;28;20185;-64
2022/04/26 04:01:26;;;;;;;17.70;14.20;;;;;;;11.19;100.00;94746.72;5093224;28;20191;-65
2022/04/26 04:03:51;;;;;;;18.23;15.23;;;;;;;11.15;100.00;94751.44;5093173;28;20226;-44
2022/04/26 04:06:16;;;;;;;19.17;15.37;;;;;;;10.99;100.00;94745.94;5093584;28;20188;-44
2022/04/26 04:08:42;;;;;;;17.23;14.90;;;;;;;10.88;100.00;94752.78;5093150;28;20188;-64
2022/04/26 04:11:07;;;;;;;18.00;14.60;;;;;;;10.99;100.00;94745.16;5093597;28;20220;-64
2022/04/26 04:13:33;;;;;;;18.70;15.57;;;;;;;10.94;100.00;94745.66;5092994;28;20289;-64
2022/04/26 04:15:58;;;;;;;17.57;14.67;;;;;;;11.06;100.00;94739.56;5093288;28;20192;-63
2022/04/26 04:21:08;;;;;;;20.27;15.03;;;;;;;11.25;100.00;94739.53;5094405;28;20187;-64
2022/04/26 04:23:40;;;;;;;18.93;15.50;;;;;;;11.28;100.00;94748.84;5092790;28;20204;-64
2022/04/26 04:26:06;;;;;;;18.27;14.90;;;;;;;11.31;100.00;94745.28;5092844;28;20211;-50
2022/04/26 04:28:33;;;;;;;16.07;13.90;;;;;;;11.30;100.00;94751.94;5092832;28;20186;-51
2022/04/26 04:30:59;;;;;;;17.07;14.40;;;;;;;11.38;100.00;94747.84;5093188;28;20196;-51
2022/04/26 04:33:24;;;;;;;17.20;14.23;;;;;;;11.46;100.00;94751.97;5092543;28;20188;-48
2022/04/26 04:35:50;;;;;;;18.00;14.47;;;;;;;11.49;100.00;94760.09;5095321;28;20284;-51
2022/04/26 04:38:15;;;;;;;18.13;14.63;;;;;;;11.36;100.00;94767.41;5099965;28;20188;-51
2022/04/26 04:40:40;;;;;;;18.83;14.67;;;;;;;11.40;100.00;94765.38;5099340;28;20181;-57
2022/04/26 04:43:06;;;;;;;16.20;13.57;;;;;;;11.47;100.00;94776.16;5099555;28;20195;-54
2022/04/26 04:45:31;;;;;;;16.50;14.33;;;;;;;11.49;100.00;94775.72;5099934;28;20196;-59
2022/04/26 04:47:56;;;;;;;17.17;14.50;;;;;;;11.46;100.00;94776.56;5099427;28;20275;-59
2022/04/26 04:50:22;;;;;;;17.67;14.47;;;;;;;11.41;100.00;94768.88;5099320;28;20184;-58
2022/04/26 04:52:47;;;;;;;19.27;13.73;;;;;;;11.46;100.00;94780.09;5099061;28;20184;-59
2022/04/26 04:55:13;;;;;;;15.83;13.97;;;;;;;11.33;100.00;94772.97;5099144;28;20201;-60
2022/04/26 04:57:38;;;;;;;16.10;14.07;;;;;;;11.46;100.00;94776.56;5099502;28;20188;-60
2022/04/26 05:00:04;;;;;;;17.90;14.13;;;;;;;11.45;100.00;94775.03;5099531;28;20184;-58
2022/04/26 05:02:30;;;;;;;15.27;12.77;;;;;;;11.63;100.00;94775.44;5099414;28;20181;-65
2022/04/26 05:04:55;;;;;;;17.37;13.97;;;;;;;11.66;100.00;94785.56;5099025;28;20215;-65
2022/04/26 05:07:20;;;;;;;15.93;12.70;;;;;;;11.61;100.00;94777.81;5099289;28;20189;-65
2022/04/26 05:09:46;;;;;;;16.67;13.20;;;;;;;11.71;100.00;94787.78;5099297;28;20229;-65
2022/04/26 05:12:11;;;;;;;17.80;14.03;;;;;;;11.69;100.00;94787.44;5098784;28;20188;-65
2022/04/26 05:14:36;;;;;;;16.80;13.30;;;;;;;11.77;100.00;94780.59;5098517;28;20191;-65
2022/04/26 05:17:02;;;;;;;17.77;14.13;;;;;;;11.92;100.00;94784.56;5098839;28;20228;-65
2022/04/26 05:19:27;;;;;;;21.60;15.90;;;;;;;12.08;100.00;94779.88;5098795;28;20184;-56
2022/04/26 05:21:52;;;;;;;19.53;14.57;;;;;;;12.13;100.00;94781.31;5098872;28;20188;-46
2022/04/26 05:27:02;;;;;;;15.53;13.03;;;;;;;12.61;100.00;94781.28;5100249;28;20199;-47
2022/04/26 05:29:27;;;;;;;15.30;13.33;;;;;;;12.67;100.00;94785.00;5098681;28;20180;-46
2022/04/26 05:31:53;;;;;;;15.80;13.17;;;;;;;12.69;100.00;94774.41;5098755;28;20241;-46
2022/04/26 05:34:18;;;;;;;14.30;12.47;;;;;;;12.54;100.00;94784.19;5098940;28;20227;-48
2022/04/26 05:36:43;;;;;;;16.33;12.90;;;;;;;12.56;100.00;94781.78;5098564;28;20192;-56
2022/04/26 05:39:09;;;;;;;15.77;12.30;;;;;;;12.40;100.00;94787.28;5098985;28;20201;-56
2022/04/26 05:41:34;;;;;;;15.50;13.43;;;;;;;12.32;100.00;94783.19;5099279;28;20266;-56
2022/04/26 05:43:59;;;;;;;16.33;13.27;;;;;;;12.29;100.00;94789.53;5098502;28;20212;-56
2022/04/26 05:46:25;;;;;;;14.70;12.30;;;;;;;12.43;100.00;94784.44;5098997;28;20196;-56
2022/04/26 05:48:50;;;;;;;17.03;13.17;;;;;;;12.49;100.00;94787.44;5094995;28;20200;-56
2022/04/26 05:51:15;;;;;;;14.67;12.77;;;;;;;12.58;100.00;94782.13;5095024;28;20193;-56
2022/04/26 05:53:41;;;;;;;15.33;12.50;;;;;;;12.57;100.00;94788.81;5095821;28;20212;-57
2022/04/26 05:56:08;;;;;;;14.00;12.50;;;;;;;12.41;100.00;94783.34;5095072;28;20193;-64
2022/04/26 05:58:34;;;;;;;17.80;13.20;;;;;;;12.49;100.00;94793.69;5095053;28;20198;-57
2022/04/26 06:00:59;;;;;;;14.57;12.57;;;;;;;12.48;100.00;94786.69;5095189;28;20193;-55
2022/04/26 06:03:25;;;;;;;15.00;13.27;;;;;;;12.50;100.00;94789.00;5095152;28;20209;-56
2022/04/26 06:05:50;;;;;;;15.77;13.23;;;;;;;12.44;100.00;94785.22;5094722;28;20184;-56
2022/04/26 06:08:15;;;;;;;14.07;12.47;;;;;;;12.46;100.00;94797.28;5094846;28;20189;-56
2022/04/26 06:10:41;;;;;;;15.20;12.53;;;;;;;12.53;100.00;94808.06;5094831;28;20230;-57
2022/04/26 06:13:08;;;;;;;14.97;12.47;;;;;;;12.47;100.00;94800.81;5095103;28;20198;-55
2022/04/26 06:15:33;;;;;;;14.33;12.53;;;;;;;12.40;100.00;94807.25;5094900;28;20376;-55
2022/04/26 06:17:59;;;;;;;14.70;12.80;;;;;;;12.32;100.00;94797.63;5094700;28;20208;-58
2022/04/26 06:20:25;;;;;;;14.73;12.47;;;;;;;12.23;100.00;94800.22;5094683;28;20189;-57
2022/04/26 06:22:50;;;;;;;14.17;12.67;;;;;;;12.32;100.00;94777.72;5095092;28;20277;-58
2022/04/26 06:25:16;;;;;;;16.27;12.73;;;;;;;12.73;100.00;94737.50;5094235;28;20217;-58
2022/04/26 06:27:41;;;;;;;15.37;13.13;;;;;;;12.86;100.00;94726.59;5094588;28;20286;-58
2022/04/26 06:30:07;;;;;;;14.27;12.73;;;;;;;12.78;100.00;94733.44;5094586;28;20197;-57
2022/04/26 06:32:32;;;;;;;13.20;11.80;;;;;;;12.83;100.00;94738.41;5094195;28;20183;-45
2022/04/26 06:34:58;;;;;;;16.43;12.33;;;;;;;12.87;100.00;94747.31;5094214;28;20187;-44
2022/04/26 06:37:23;;;;;;;12.73;11.17;;;;;;;12.87;100.00;94748.09;5094251;28;20234;-43
2022/04/26 06:39:51;;;;;;;13.63;11.13;;;;;;;12.82;100.00;94745.09;5094677;28;20190;-42
2022/04/26 06:42:17;;;;;;;13.93;11.50;;;;;;;13.09;100.00;94749.06;5094129;28;20199;-44
2022/04/26 06:44:42;;;;;;;12.50;11.00;;;;;;;13.18;100.00;94762.09;5093877;28;20197;-44
2022/04/26 06:47:08;;;;;;;13.57;10.27;;;;;;;13.30;100.00;94759.41;5094216;28;20189;-43
2022/04/26 06:49:33;;;;;;;12.37;10.07;;;;;;;13.34;100.00;94760.06;5093879;28;20274;-64
2022/04/26 06:51:58;;;;;;;13.23;10.70;;;;;;;13.61;100.00;94759.66;5095445;28;20231;-58
2022/04/26 06:54:24;;;;;;;12.90;9.83;;;;;;;13.81;100.00;94771.22;5094523;28;20190;-64
2022/04/26 06:56:49;;;;;;;12.30;10.63;;;;;;;14.13;100.00;94770.97;5094112;28;20195;-65
2022/04/26 06:59:15;;;;;;;13.00;10.40;;;;;;;14.16;100.00;94772.09;5092816;28;20199;-65
2022/04/26 07:01:40;;;;;;;13.47;11.17;;;;;;;14.60;100.00;94765.56;5094388;28;20209;-65
2022/04/26 07:04:07;;;;;;;11.87;10.50;;;;;;;14.70;100.00;94764.41;5094109;28;20208;-65
2022/04/26 07:06:32;;;;;;;12.63;10.47;;;;;;;14.78;100.00;94765.69;5093944;28;20192;-66
2022/04/26 07:08:57;;;;;;;11.67;10.47;;;;;;;14.75;100.00;94780.34;5094050;28;20283;-54
2022/04/26 07:11:23;;;;;;;12.20;10.07;;;;;;;14.71;100.00;94772.19;5093985;28;20196;-58
2022/04/26 07:13:49;;;;;;;11.57;10.37;;;;;;;14.87;100.00;94774.81;5094187;28;20286;-58
2022/04/26 07:16:14;;;;;;;12.30;10.23;;;;;;;15.30;100.00;94769.31;5093874;28;20183;-58
2022/04/26 07:18:39;;;;;;;12.10;10.13;;;;;;;16.76;100.00;94758.47;5094004;28;20191;-58
2022/04/26 07:21:05;;;;;;;10.57;9.00;;;;;;;16.46;100.00;94778.63;5093887;28;20185;-57
2022/04/26 07:23:30;;;;;;;9.90;8.90;;;;;;;15.91;100.00;94774.91;5093723;28;20207;-57
2022/04/26 07:25:55;;;;;;;10.60;9.50;;;;;;;16.43;100.00;94783.06;5093597;28;20295;-54
2022/04/26 07:28:22;;;;;;;10.20;8.50;;;;;;;16.62;100.00;94786.63;5093827;28;20187;-52
2022/04/26 07:30:47;;;;;;;9.33;8.33;;;;;;;17.45;100.00;94789.00;5094036;28;20215;-54
2022/04/26 07:35:57;;;;;;;7.93;7.13;;;;;;;19.65;100.00;94794.03;5095111;28;20188;-54
2022/04/26 07:38:22;;;;;;;7.37;6.67;;;;;;;21.20;100.00;94803.53;5093533;28;20184;-53
2022/04/26 07:40:47;;;;;;;7.10;6.40;;;;;;;20.72;100.00;94832.91;5093450;28;20229;-51
2022/04/26 07:43:13;;;;;;;6.70;6.10;;;;;;;20.27;100.00;94850.09;5093390;28;20177;-55
2022/04/26 07:45:41;;;;;;;6.10;5.60;;;;;;;20.29;100.00;94853.13;5093712;28;20233;-60
2022/04/26 07:48:22;;;;;;;6.33;5.33;;;;;;;19.16;100.00;94869.31;5095089;28;20251;-53
2022/04/26 07:50:49;;;;;;;5.33;4.87;;;;;;;18.61;100.00;94861.81;5093011;28;20345;-55
2022/04/26 07:53:15;;;;;;;5.93;5.33;;;;;;;18.18;100.00;94867.75;5093330;28;20189;-51
2022/04/26 07:55:40;;;;;;;5.67;5.17;;;;;;;18.02;100.00;94859.78;5093824;28;20187;-52
2022/04/26 07:58:05;;;;;;;6.93;5.57;;;;;;;17.71;100.00;94867.53;5093253;28;20274;-56
2022/04/26 08:00:31;;;;;;;5.90;5.30;;;;;;;17.19;100.00;94865.03;5093283;28;20184;-53
2022/04/26 08:02:56;;;;;;;5.50;5.00;;;;;;;16.98;100.00;94865.91;5093333;28;20229;-56
2022/04/26 08:05:22;;;;;;;5.67;5.13;;;;;;;16.64;100.00;94868.91;5093221;28;20257;-56
2022/04/26 08:07:49;;;;;;;6.00;5.40;;;;;;;16.70;100.00;94872.59;5093099;28;20188;-60
2022/04/26 08:10:15;;;;;;;6.93;6.23;;;;;;;16.44;100.00;94870.03;5092251;28;20188;-59
2022/04/26 08:12:42;;;;;;;6.23;5.63;;;;;;;16.34;100.00;94865.69;5092808;28;20192;-59
2022/04/26 08:15:10;;;;;;;7.27;5.93;;;;;;;16.30;100.00;94867.81;5092973;28;20197;-60
2022/04/26 08:17:35;;;;;;;6.80;6.20;;;;;;;16.02;100.00;94873.63;5092784;28;20188;-60
2022/04/26 08:20:02;;;;;;;6.30;5.33;;;;;;;15.81;100.00;94880.69;5093479;28;20188;-59
2022/04/26 08:22:27;;;;;;;5.47;4.53;;;;;;;15.66;100.00;94879.69;5093179;28;20188;-49
2022/04/26 08:27:36;;;;;;;5.43;4.93;;;;;;;15.53;100.00;94867.97;5094507;28;20192;-58
2022/04/26 08:30:03;;;;;;;5.37;4.77;;;;;;;15.49;100.00;94875.59;5092542;28;20184;-56
2022/04/26 08:32:43;;;;;;;5.40;4.70;;;;;;;15.23;100.00;94879.59;5092667;28;20181;-56
2022/04/26 08:35:11;;;;;;;5.27;4.77;;;;;;;15.16;100.00;94874.34;5093367;28;20181;-57
2022/04/26 08:37:37;;;;;;;6.33;5.17;;;;;;;14.86;100.00;94883.22;5092806;28;20172;-57
2022/04/26 08:40:05;;;;;;;5.00;4.60;;;;;;;14.59;100.00;94885.69;5092924;28;20184;-51
2022/04/26 08:42:39;;;;;;;4.20;3.90;;;;;;;14.55;100.00;94885.03;5092724;28;20203;-58
2022/04/26 08:45:07;;;;;;;7.03;4.30;;;;;;;14.36;100.00;94885.25;5092590;28;20216;-59
2022/04/26 08:53:02;;;;;;;4.50;4.10;;;;;;;14.33;100.00;94862.19;5094021;28;20211;-59
2022/04/26 08:55:27;;;;;;;4.43;4.03;;;;;;;14.14;100.00;94843.94;5093035;28;20196;-61
2022/04/26 08:57:53;;;;;;;6.13;4.13;;;;;;;14.14;100.00;94837.66;5092338;28;20541;-44
2022/04/26 09:00:18;;;;;;;5.23;4.23;;;;;;;13.79;100.00;94839.50;5092478;28;20276;-42
2022/04/26 09:03:00;;;;;;;5.93;4.03;;;;;;;13.72;100.00;94828.72;5092540;28;20229;-64
2022/04/26 09:05:25;;;;;;;5.77;3.90;;;;;;;13.97;100.00;94828.75;5092785;28;20208;-63
2022/04/26 09:07:51;;;;;;;5.60;4.00;;;;;;;14.47;100.00;94822.50;5092383;28;20183;-62
2022/04/26 09:10:18;;;;;;;7.43;5.10;;;;;;;14.48;100.00;94813.81;5093325;28;20185;-63
2022/04/26 09:13:04;;;;;;;7.00;4.67;;;;;;;14.35;100.00;94810.31;5092199;28;20212;-64
2022/04/26 09:15:44;;;;;;;3.93;3.30;;;;;;;14.22;100.00;94812.31;5092784;28;20176;-63
2022/04/26 09:18:26;;;;;;;5.40;3.80;;;;;;;14.30;100.00;94808.13;5092708;28;20206;-63
2022/04/26 09:20:53;;;;;;;4.13;3.50;;;;;;;14.37;100.00;94802.41;5092281;28;20216;-63
2022/04/26 09:23:21;;;;;;;3.97;3.57;;;;;;;14.45;100.00;94798.22;5094064;28;20191;-63
2022/04/26 09:25:47;;;;;;;3.57;3.23;;;;;;;14.41;100.00;94807.78;5095512;28;20208;-63
2022/04/26 09:28:24;;;;;;;4.20;3.47;;;;;;;14.05;100.00;94805.34;5095910;28;20192;-64
2022/04/26 09:30:50;;;;;;;4.40;4.00;;;;;;;14.03;100.00;94807.78;5095607;28;20187;-64
2022/04/26 09:33:33;;;;;;;3.60;3.00;;;;;;;13.67;100.00;94810.06;5095565;28;20184;-64
2022/04/26 09:36:09;;;;;;;4.63;3.33;;;;;;;13.58;100.00;94809.91;5095541;28;20210;-59
2022/04/26 09:38:35;;;;;;;3.63;3.33;;;;;;;13.55;100.00;94810.03;5095410;28;20223;-59
2022/04/26 09:41:09;;;;;;;4.10;3.60;;;;;;;13.58;100.00;94812.66;5095326;28;20195;-59
2022/04/26 09:43:35;;;;;;;4.37;3.70;;;;;;;13.67;100.00;94809.28;5095728;28;20205;-60
2022/04/26 09:46:01;;;;;;;4.80;3.70;;;;;;;13.39;100.00;94808.13;5095451;28;20187;-59
2022/04/26 09:48:38;;;;;;;4.67;3.50;;;;;;;13.17;100.00;94801.69;5095391;28;20184;-58
2022/04/26 09:51:04;;;;;;;5.27;3.70;;;;;;;12.85;100.00;94775.13;5095368;28;20191;-58
2022/04/26 09:53:32;;;;;;;7.23;4.03;;;;;;;13.00;100.00;94761.84;5095281;28;20183;-58
2022/04/26 09:55:58;;;;;;;8.53;4.23;;;;;;;12.92;100.00;94755.75;5095088;28;20193;-53
2022/04/26 09:58:27;;;;;;;6.23;4.60;;;;;;;12.81;100.00;94766.25;5095221;28;20204;-51
2022/04/26 10:00:54;;;;;;;5.20;3.87;;;;;;;13.04;100.00;94768.00;5095532;28;20218;-48
2022/04/26 10:03:23;;;;;;;7.23;4.67;;;;;;;12.93;100.00;94773.00;5094810;28;20191;-44
2022/04/26 10:06:08;;;;;;;6.33;4.43;;;;;;;13.03;100.00;94780.16;5095005;28;20209;-49
2022/04/26 10:08:35;;;;;;;8.10;5.40;;;;;;;13.26;100.00;94779.91;5094712;28;20192;-52
2022/04/26 10:11:02;;;;;;;4.83;4.23;;;;;;;13.98;100.00;94786.34;5095199;28;20242;-48
2022/04/26 10:13:38;;;;;;;5.73;4.37;;;;;;;14.01;100.00;94795.69;5094961;28;20219;-50
2022/04/26 10:16:09;;;;;;;8.73;5.27;;;;;;;19.07;100.00;94766.19;5095283;28;20192;-65
2022/04/26 10:18:45;;;;;;;9.20;5.00;;;;;;;18.55;100.00;94775.94;5094745;28;20214;-65
2022/04/26 10:21:22;;;;;;;5.57;4.17;;;;;;;15.93;100.00;94808.28;5094546;28;20236;-64
2022/04/26 10:23:50;;;;;;;5.23;4.10;;;;;;;14.87;100.00;94826.25;5094709;28;20384;-64
2022/04/26 10:29:01;;;;;;;5.13;4.63;;;;;;;15.62;100.00;94823.22;5095606;28;20212;-64
2022/04/26 10:31:36;;;;;;;7.30;5.70;;;;;;;15.60;100.00;94815.44;5094690;28;20185;-49
2022/04/26 10:34:26;;;;;;;4.87;4.37;;;;;;;15.43;100.00;94827.84;5094331;28;20235;-59
2022/04/26 10:37:06;;;;;;;6.43;4.47;;;;;;;16.13;100.00;94816.13;5094326;28;20190;-58
2022/04/26 10:39:33;;;;;;;4.80;4.30;;;;;;;15.74;100.00;94820.38;5095223;28;20187;-57
2022/04/26 10:42:01;;;;;;;7.00;4.60;;;;;;;15.52;100.00;94814.13;5094695;28;20264;-55
2022/04/26 10:44:30;;;;;;;6.97;4.20;;;;;;;14.74;100.00;94826.28;5094254;28;20199;-54
2022/04/26 10:46:58;;;;;;;6.20;5.53;;;;;;;14.90;100.00;94828.88;5094942;28;20192;-53
2022/04/26 10:49:24;;;;;;;7.90;5.70;;;;;;;14.84;100.00;94827.94;5094377;28;20179;-55
2022/04/26 10:51:52;;;;;;;4.97;4.53;;;;;;;14.87;100.00;94826.25;5094192;28;20186;-55
2022/04/26 10:54:45;;;;;;;5.67;5.07;;;;;;;15.44;100.00;94829.38;5094463;28;20234;-55
2022/04/26 10:57:26;;;;;;;5.43;4.70;;;;;;;15.33;100.00;94831.69;5094213;28;20191;-54
2022/04/26 11:00:07;;;;;;;5.13;4.30;;;;;;;15.33;100.00;94833.66;5094411;28;20272;-56
2022/04/26 11:02:36;;;;;;;5.40;4.70;;;;;;;15.47;100.00;94836.72;5094485;28;20184;-57
2022/04/26 11:05:08;;;;;;;4.60;4.00;;;;;;;15.50;100.00;94841.34;5094064;28;20340;-57
2022/04/26 11:07:34;;;;;;;6.70;5.27;;;;;;;15.16;100.00;94848.84;5094461;28;20191;-64
2022/04/26 11:10:00;;;;;;;5.23;4.53;;;;;;;15.31;100.00;94852.63;5093890;28;20198;-43
2022/04/26 11:12:27;;;;;;;9.13;4.50;;;;;;;15.17;100.00;94859.41;5094246;28;20185;-41
2022/04/26 11:14:56;;;;;;;5.17;4.37;;;;;;;15.09;100.00;94858.09;5094393;28;20195;-40
2022/04/26 11:17:22;;;;;;;7.33;4.87;;;;;;;14.73;100.00;94870.72;5094109;28;20186;-40
2022/04/26 11:19:49;;;;;;;4.80;3.90;;;;;;;14.25;100.00;94874.59;5093850;28;20208;-42
2022/04/26 11:22:15;;;;;;;4.57;4.13;;;;;;;14.09;100.00;94893.88;5094215;28;20183;-42
2022/04/26 11:30:21;;;;;;;4.87;3.50;;;;;;;12.60;100.00;94924.91;5095303;28;20209;-58
2022/04/26 11:32:47;;;;;;;5.07;3.23;;;;;;;12.50;100.00;94932.16;5094068;28;20173;-58
2022/04/26 11:35:19;;;;;;;4.30;3.63;;;;;;;12.53;100.00;94941.53;5094272;28;20180;-58
2022/04/26 11:37:53;;;;;;;4.47;3.13;;;;;;;12.39;100.00;94952.78;5093443;28;20188;-59
2022/04/26 11:40:26;;;;;;;4.53;2.97;;;;;;;12.09;100.00;94955.81;5093727;28;20189;-59
2022/04/26 11:42:52;;;;;;;3.20;2.50;;;;;;;12.11;100.00;94961.63;5093637;28;20641;-59
2022/04/26 11:45:18;;;;;;;4.37;2.57;;;;;;;12.52;100.00;94967.34;5092340;28;20215;-46
2022/04/26 11:47:48;;;;;;;3.20;2.47;;;;;;;12.68;100.00;94967.38;5093680;28;20183;-44
2022/04/26 11:50:15;;;;;;;4.20;2.17;;;;;;;12.55;100.00;94977.47;5093471;28;20197;-47
2022/04/26 11:52:44;;;;;;;4.00;3.07;;;;;;;12.03;100.00;94998.53;5093256;28;20191;-46
2022/04/26 11:55:33;;;;;;;3.63;2.40;;;;;;;12.25;100.00;94996.91;5093411;28;20238;-45
2022/04/26 11:58:14;;;;;;;5.80;3.53;;;;;;;11.96;100.00;95001.41;5093754;28;20197;-46
2022/04/26 12:00:51;;;;;;;4.93;2.90;;;;;;;12.28;100.00;95007.03;5093511;28;20192;-46
2022/04/26 12:03:17;;;;;;;3.83;3.27;;;;;;;12.68;100.00;95003.75;5093102;28;20191;-63
2022/04/26 12:05:43;;;;;;;5.93;3.30;;;;;;;13.09;100.00;95001.28;5093042;28;20621;-63
2022/04/26 12:08:12;;;;;;;3.40;2.90;;;;;;;13.71;100.00;95008.31;5093333;28;20249;-63
2022/04/26 12:10:38;;;;;;;4.80;3.40;;;;;;;14.20;100.00;95006.94;5093491;28;20275;-63
2022/04/26 12:13:07;;;;;;;4.67;3.43;;;;;;;14.14;100.00;95014.19;5092810;28;20220;-62
2022/04/26 12:15:35;;;;;;;3.60;2.83;;;;;;;14.12;100.00;95013.84;5092931;28;20181;-62
2022/04/26 12:18:21;;;;;;;7.60;4.40;;;;;;;14.72;100.00;95020.38;5092747;28;20210;-63
2022/04/26 12:21:02;;;;;;;5.03;3.10;;;;;;;14.50;100.00;95030.47;5092521;28;20290;-63
2022/04/26 12:23:29;;;;;;;3.67;3.00;;;;;;;13.93;100.00;95027.72;5092730;28;20209;-61
2022/04/26 12:26:05;;;;;;;4.70;3.10;;;;;;;13.61;100.00;95031.31;5093006;28;20199;-62
2022/04/26 12:28:32;;;;;;;4.00;3.10;;;;;;;13.54;100.00;95033.47;5092865;28;20245;-60
2022/04/26 12:30:57;;;;;;;4.63;3.30;;;;;;;13.20;100.00;95037.44;5092759;28;20187;-61
2022/04/26 12:33:31;;;;;;;5.97;3.50;;;;;;;13.27;100.00;95039.22;5092839;28;20191;-61
2022/04/26 12:36:06;;;;;;;5.90;3.73;;;;;;;13.29;100.00;95042.28;5093378;28;20188;-61
2022/04/26 12:38:50;;;;;;;4.33;3.47;;;;;;;13.62;100.00;95043.81;5092567;28;20275;-60
2022/04/26 12:41:15;;;;;;;5.00;4.03;;;;;;;13.76;100.00;95037.22;5092531;28;20212;-61
2022/04/26 12:43:41;;;;;;;6.07;4.40;;;;;;;13.82;100.00;95039.00;5091795;28;20231;-57
2022/04/26 12:46:06;;;;;;;5.13;3.90;;;;;;;13.97;100.00;95037.41;5092266;28;20180;-55
2022/04/26 12:51:25;;;;;;;3.30;3.00;;;;;;;14.04;100.00;95045.44;5094185;28;20287;-56
2022/04/26 12:53:51;;;;;;;4.77;3.47;;;;;;;13.70;100.00;95053.44;5092960;28;20184;-54
2022/04/26 12:56:19;;;;;;;3.97;3.57;;;;;;;13.52;100.00;95049.56;5092705;28;20277;-56
2022/04/26 12:58:46;;;;;;;4.93;3.10;;;;;;;13.56;100.00;95055.75;5096190;28;20222;-57
2022/04/26 13:01:12;;;;;;;3.27;2.83;;;;;;;13.98;100.00;95055.41;5096031;28;20188;-61
2022/04/26 13:03:38;;;;;;;3.33;3.00;;;;;;;14.12;100.00;95060.53;5095761;28;20180;-63
2022/04/26 13:06:15;;;;;;;2.53;2.30;;;;;;;14.55;100.00;95055.41;5095881;28;20184;-62
2022/04/26 13:08:46;;;;;;;2.73;2.50;;;;;;;15.49;100.00;95053.72;5095906;28;20191;-61
2022/04/26 13:11:12;;;;;;;3.67;2.30;;;;;;;15.03;100.00;95062.59;5096013;28;20267;-61
2022/04/26 13:13:39;;;;;;;4.67;2.70;;;;;;;14.97;100.00;95065.13;5095863;28;20230;-62
2022/04/26 13:16:05;;;;;;;3.53;2.47;;;;;;;15.25;100.00;95063.50;5095961;28;20184;-58
2022/04/26 13:18:31;;;;;;;3.20;2.67;;;;;;;14.97;100.00;95059.63;5095524;28;20184;-63
2022/04/26 13:20:57;;;;;;;3.37;2.43;;;;;;;14.46;100.00;95074.50;5095646;28;20173;-64
2022/04/26 13:23:24;;;;;;;3.87;2.50;;;;;;;14.49;100.00;95072.88;5095625;28;20181;-63
2022/04/26 13:25:50;;;;;;;3.10;2.27;;;;;;;14.50;100.00;95061.44;5095484;28;20212;-64
2022/04/26 13:28:15;;;;;;;4.13;2.10;;;;;;;14.03;100.00;95068.63;5095305;28;20188;-66
2022/04/26 13:30:41;;;;;;;2.17;1.90;;;;;;;14.03;100.00;95068.63;5095463;28;20231;-64
2022/04/26 13:33:07;;;;;;;4.27;2.40;;;;;;;14.25;100.00;95050.41;5095859;28;20189;-64
2022/04/26 13:35:34;;;;;;;2.90;2.53;;;;;;;14.72;100.00;95034.88;5095486;28;20185;-43
2022/04/26 13:37:59;;;;;;;6.50;2.30;;;;;;;14.96;100.00;95030.59;5095384;28;20192;-60
2022/04/26 13:40:25;;;;;;;2.67;2.00;;;;;;;15.61;100.00;95019.88;5095285;28;20273;-60
2022/04/26 13:42:53;;;;;;;2.60;2.23;;;;;;;15.22;100.00;95032.13;5096131;28;20264;-60
2022/04/26 13:45:20;;;;;;;2.97;2.17;;;;;;;15.05;100.00;95051.94;5095088;28;20235;-60
2022/04/26 13:47:45;;;;;;;3.90;2.00;;;;;;;14.22;100.00;95065.00;5095416;28;20180;-58
2022/04/26 13:50:12;;;;;;;2.37;1.90;;;;;;;14.56;100.00;95062.44;5095751;28;20177;-58
2022/04/26 13:52:40;;;;;;;2.67;1.83;;;;;;;14.40;100.00;95053.50;5095016;28;20187;-44
2022/04/26 13:55:06;;;;;;;1.83;1.60;;;;;;;14.45;100.00;95061.97;5095256;28;20267;-55
2022/04/26 13:57:32;;;;;;;1.80;1.70;;;;;;;14.40;100.00;95059.78;5095344;28;20257;-53
2022/04/26 13:59:57;;;;;;;4.67;2.10;;;;;;;14.43;100.00;95063.63;5095998;28;20326;-55
2022/04/26 14:02:22;;;;;;;8.87;1.97;;;;;;;14.51;100.00;95071.25;5095285;28;20212;-55
2022/04/26 14:04:48;;;;;;;1.90;1.60;;;;;;;14.21;100.00;95081.88;5094733;28;20300;-55
2022/04/26 14:07:14;;;;;;;2.87;1.90;;;;;;;14.22;100.00;95092.47;5095379;28;20189;-53
2022/04/26 14:09:40;;;;;;;1.73;1.63;;;;;;;14.24;100.00;95095.53;5094307;28;20188;-56
2022/04/26 14:12:07;;;;;;;2.73;1.70;;;;;;;14.42;100.00;95106.81;5094750;28;20287;-43
2022/04/26 14:22:46;;;;;;;3.93;2.23;;;;;;;14.52;100.00;95118.72;5096149;28;20199;-65
2022/04/26 14:25:13;;;;;;;2.77;2.23;;;;;;;14.28;100.00;95123.66;5094781;28;20207;-65
2022/04/26 14:27:41;;;;;;;2.70;2.20;;;;;;;14.00;100.00;95129.91;5094964;28;20184;-65
2022/04/26 14:30:08;;;;;;;2.60;2.37;;;;;;;13.94;100.00;95137.09;5094961;28;20177;-63
2022/04/26 14:32:34;;;;;;;2.70;2.17;;;;;;;13.46;100.00;95150.81;5094267;28;20309;-62
2022/04/26 14:35:00;;;;;;;2.63;2.30;;;;;;;13.81;100.00;95144.50;5094566;28;20184;-63
2022/04/26 14:37:25;;;;;;;4.77;2.70;;;;;;;14.12;100.00;95137.41;5094891;28;20184;-62
2022/04/26 14:39:51;;;;;;;3.50;2.50;;;;;;;14.16;100.00;95140.84;5094206;28;20240;-63
2022/04/26 14:42:17;;;;;;;8.07;6.13;;;;;;;14.33;100.00;95153.38;5094874;28;20181;-65
2022/04/26 14:44:43;;;;;;;2.67;2.47;;;;;;;14.32;100.00;95157.34;5094047;28;20200;-61
2022/04/26 14:47:09;;;;;;;5.73;5.13;;;;;;;14.18;100.00;95160.41;5094551;28;20180;-56
2022/04/26 14:49:34;;;;;;;6.33;4.77;;;;;;;14.28;100.00;95162.13;5094693;28;20230;-66
2022/04/26 14:52:00;;;;;;;4.30;2.67;;;;;;;14.09;100.00;95163.00;5094350;28;20185;-58
2022/04/26 14:54:25;;;;;;;3.60;2.90;;;;;;;14.13;100.00;95171.16;5094615;28;20204;-57
2022/04/26 14:56:51;;;;;;;3.37;2.80;;;;;;;13.93;100.00;95171.25;5094340;28;20180;-56
2022/04/26 14:59:18;;;;;;;3.43;2.90;;;;;;;13.91;100.00;95176.38;5095217;28;20248;-56
2022/04/26 15:01:46;;;;;;;2.80;2.60;;;;;;;13.67;100.00;95182.47;5094313;28;20218;-56
2022/04/26 15:04:12;;;;;;;4.70;3.03;;;;;;;14.03;100.00;95172.97;5093950;28;20212;-52
2022/04/26 15:06:38;;;;;;;5.00;2.90;;;;;;;14.33;100.00;95180.06;5093842;28;20192;-46
2022/04/26 15:11:47;;;;;;;5.47;3.70;;;;;;;14.75;100.00;95184.44;5095288;28;20226;-55
2022/04/26 15:16:57;;;;;;;7.17;3.83;;;;;;;14.48;100.00;95183.97;5095453;28;20191;-57
2022/04/26 15:19:22;;;;;;;3.93;3.30;;;;;;;14.52;100.00;95181.91;5093835;28;20176;-56
2022/04/26 15:21:47;;;;;;;6.37;4.73;;;;;;;14.81;100.00;95180.72;5093109;28;20176;-56
2022/04/26 15:24:13;;;;;;;9.83;7.93;;;;;;;14.85;100.00;95178.63;5093639;28;20208;-58
2022/04/26 15:26:39;;;;;;;5.57;4.43;;;;;;;14.64;100.00;95184.72;5093794;28;20295;-53
2022/04/26 15:29:05;;;;;;;4.37;3.20;;;;;;;14.86;100.00;95179.41;5094401;28;20256;-61
2022/04/26 15:31:32;;;;;;;6.03;3.50;;;;;;;15.03;100.00;95178.91;5094506;28;20223;-61
2022/04/26 15:33:58;;;;;;;4.73;3.57;;;;;;;14.33;100.00;95186.34;5093716;28;20188;-66
2022/04/26 15:36:23;;;;;;;6.43;3.60;;;;;;;14.58;100.00;95180.97;5093906;28;20196;-58
2022/04/26 15:38:49;;;;;;;3.80;3.40;;;;;;;14.58;100.00;95189.22;5093846;28;20212;-59